PWSweather.com
Personal Weather Stations
Station Observations
KOHCLEVE171
Cleveland, OH

Cleveland, OH

Lat: 41.48646164, Lon: -81.46408081

Elevation: 1059

Station Type:

High Low Average
Temperature 31.3°F-0.4°C 21.2°F-6.0°C 26.2°F-3.2°C
Dew Point 22.8°F-5.1°C 16.5°F-8.6°C 19.3°F-7.1°C
Winds 3.4 mph 5.5 kmh 0.2 mph 0.3 kmh 2.0 mph ESE3.2 kmh ESE
Wind Gusts 6.3 mph10.1 kmh 0.9 mph1.4 kmh 2.0 mph3.2 kmh
Humidity 85% 58% 75%
Pressure 30.51 in1033.2 mb 30.41 in1029.8 mb -
Precipitation 0.00 in0.0 mm - -
Hour Temp Dew Point Humidity Winds Wind Gusts Pressure Precip Precip Rate Daily Precip Total
12:03 AM 25.9°F-3.4°C 19.6°F-6.9°C 77% 1.6 mph E2.6 kmh E 1.8 mph2.9 kmh 30.45 in1031.2 mb 0.00 in0.0 mm 0.00 in0.0 mm 0.00 in0.0 mm
12:08 AM 25.7°F-3.5°C 19.4°F-7.0°C 77% 1.6 mph ESE2.6 kmh ESE 1.8 mph2.9 kmh 30.45 in1031.2 mb 0.00 in0.0 mm 0.00 in0.0 mm 0.00 in0.0 mm
12:13 AM 25.5°F-3.6°C 19.0°F-7.2°C 76% 1.3 mph E2.1 kmh E 2.0 mph3.2 kmh 30.46 in1031.5 mb 0.00 in0.0 mm 0.00 in0.0 mm 0.00 in0.0 mm
12:18 AM 25.3°F-3.7°C 18.9°F-7.3°C 76% 1.6 mph SE2.6 kmh SE 1.8 mph2.9 kmh 30.46 in1031.5 mb 0.00 in0.0 mm 0.00 in0.0 mm 0.00 in0.0 mm
12:23 AM 25.2°F-3.8°C 19.0°F-7.2°C 77% 1.1 mph SE1.8 kmh SE 1.3 mph2.1 kmh 30.46 in1031.5 mb 0.00 in0.0 mm 0.00 in0.0 mm 0.00 in0.0 mm
12:28 AM 25.2°F-3.8°C 19.0°F-7.2°C 77% 1.3 mph SE2.1 kmh SE 1.3 mph2.1 kmh 30.46 in1031.5 mb 0.00 in0.0 mm 0.00 in0.0 mm 0.00 in0.0 mm
12:33 AM 24.8°F-4.0°C 18.7°F-7.4°C 77% 1.8 mph E2.9 kmh E 1.8 mph2.9 kmh 30.46 in1031.5 mb 0.00 in0.0 mm 0.00 in0.0 mm 0.00 in0.0 mm
12:39 AM 24.8°F-4.0°C 19.2°F-7.1°C 79% 1.1 mph ENE1.8 kmh ENE 1.3 mph2.1 kmh 30.46 in1031.5 mb 0.00 in0.0 mm 0.00 in0.0 mm 0.00 in0.0 mm
12:43 AM 24.8°F-4.0°C 18.7°F-7.4°C 77% 1.1 mph E1.8 kmh E 1.6 mph2.6 kmh 30.46 in1031.5 mb 0.00 in0.0 mm 0.00 in0.0 mm 0.00 in0.0 mm
12:48 AM 24.6°F-4.1°C 18.5°F-7.5°C 77% Calm Calm -- 30.46 in1031.5 mb 0.00 in0.0 mm 0.00 in0.0 mm 0.00 in0.0 mm
12:53 AM 24.3°F-4.3°C 18.1°F-7.7°C 77% Calm Calm -- 30.46 in1031.5 mb 0.00 in0.0 mm 0.00 in0.0 mm 0.00 in0.0 mm
01:03 AM 24.4°F-4.2°C 18.9°F-7.3°C 79% 1.3 mph SE2.1 kmh SE 1.3 mph2.1 kmh 30.46 in1031.5 mb 0.00 in0.0 mm 0.00 in0.0 mm 0.00 in0.0 mm
01:08 AM 24.4°F-4.2°C 18.9°F-7.3°C 79% 0.9 mph SE1.4 kmh SE 1.3 mph2.1 kmh 30.46 in1031.5 mb 0.00 in0.0 mm 0.00 in0.0 mm 0.00 in0.0 mm
01:14 AM 24.4°F-4.2°C 18.9°F-7.3°C 79% 0.9 mph SSE1.4 kmh SSE 1.1 mph1.8 kmh 30.46 in1031.5 mb 0.00 in0.0 mm 0.00 in0.0 mm 0.00 in0.0 mm
01:18 AM 24.3°F-4.3°C 19.0°F-7.2°C 80% 0.7 mph SSE1.1 kmh SSE 0.9 mph1.4 kmh 30.46 in1031.5 mb 0.00 in0.0 mm 0.00 in0.0 mm 0.00 in0.0 mm
01:24 AM 24.1°F-4.4°C 18.9°F-7.3°C 80% 0.7 mph SE1.1 kmh SE 1.3 mph2.1 kmh 30.46 in1031.5 mb 0.00 in0.0 mm 0.00 in0.0 mm 0.00 in0.0 mm
01:29 AM 24.3°F-4.3°C 19.2°F-7.1°C 81% 0.9 mph SSE1.4 kmh SSE 1.1 mph1.8 kmh 30.46 in1031.5 mb 0.00 in0.0 mm 0.00 in0.0 mm 0.00 in0.0 mm
01:34 AM 24.3°F-4.3°C 19.2°F-7.1°C 81% 1.1 mph SSE1.8 kmh SSE 1.1 mph1.8 kmh 30.46 in1031.5 mb 0.00 in0.0 mm 0.00 in0.0 mm 0.00 in0.0 mm
01:39 AM 24.3°F-4.3°C 19.2°F-7.1°C 81% 0.9 mph SSE1.4 kmh SSE 1.1 mph1.8 kmh 30.46 in1031.5 mb 0.00 in0.0 mm 0.00 in0.0 mm 0.00 in0.0 mm
01:43 AM 24.3°F-4.3°C 19.2°F-7.1°C 81% 0.7 mph SE1.1 kmh SE 1.1 mph1.8 kmh 30.46 in1031.5 mb 0.00 in0.0 mm 0.00 in0.0 mm 0.00 in0.0 mm
01:49 AM 24.3°F-4.3°C 19.2°F-7.1°C 81% 1.3 mph SE2.1 kmh SE 1.8 mph2.9 kmh 30.46 in1031.5 mb 0.00 in0.0 mm 0.00 in0.0 mm 0.00 in0.0 mm
01:54 AM 24.3°F-4.3°C 19.2°F-7.1°C 81% 1.3 mph SE2.1 kmh SE 1.8 mph2.9 kmh 30.46 in1031.5 mb 0.00 in0.0 mm 0.00 in0.0 mm 0.00 in0.0 mm
01:59 AM 24.4°F-4.2°C 19.4°F-7.0°C 81% 1.1 mph SE1.8 kmh SE 1.3 mph2.1 kmh 30.46 in1031.5 mb 0.00 in0.0 mm 0.00 in0.0 mm 0.00 in0.0 mm
02:04 AM 24.3°F-4.3°C 19.0°F-7.2°C 80% 1.6 mph SE2.6 kmh SE 1.8 mph2.9 kmh 30.46 in1031.5 mb 0.00 in0.0 mm 0.00 in0.0 mm 0.00 in0.0 mm
02:09 AM 24.1°F-4.4°C 18.9°F-7.3°C 80% 1.6 mph SE2.6 kmh SE 1.8 mph2.9 kmh 30.46 in1031.5 mb 0.00 in0.0 mm 0.00 in0.0 mm 0.00 in0.0 mm
02:14 AM 24.3°F-4.3°C 19.0°F-7.2°C 80% 0.9 mph SE1.4 kmh SE 1.6 mph2.6 kmh 30.46 in1031.5 mb 0.00 in0.0 mm 0.00 in0.0 mm 0.00 in0.0 mm
02:19 AM 24.3°F-4.3°C 19.0°F-7.2°C 80% 1.6 mph SE2.6 kmh SE 1.8 mph2.9 kmh 30.45 in1031.2 mb 0.00 in0.0 mm 0.00 in0.0 mm 0.00 in0.0 mm
02:24 AM 24.3°F-4.3°C 19.0°F-7.2°C 80% 1.3 mph ESE2.1 kmh ESE 1.6 mph2.6 kmh 30.46 in1031.5 mb 0.00 in0.0 mm 0.00 in0.0 mm 0.00 in0.0 mm
02:29 AM 24.1°F-4.4°C 18.9°F-7.3°C 80% 1.6 mph E2.6 kmh E 1.8 mph2.9 kmh 30.46 in1031.5 mb 0.00 in0.0 mm 0.00 in0.0 mm 0.00 in0.0 mm
02:34 AM 24.1°F-4.4°C 18.9°F-7.3°C 80% 1.3 mph E2.1 kmh E 1.8 mph2.9 kmh 30.46 in1031.5 mb 0.00 in0.0 mm 0.00 in0.0 mm 0.00 in0.0 mm
02:39 AM 24.1°F-4.4°C 18.9°F-7.3°C 80% 1.6 mph E2.6 kmh E 1.8 mph2.9 kmh 30.46 in1031.5 mb 0.00 in0.0 mm 0.00 in0.0 mm 0.00 in0.0 mm
02:44 AM 24.1°F-4.4°C 18.9°F-7.3°C 80% 1.6 mph E2.6 kmh E 1.6 mph2.6 kmh 30.46 in1031.5 mb 0.00 in0.0 mm 0.00 in0.0 mm 0.00 in0.0 mm
02:49 AM 23.9°F-4.5°C 18.7°F-7.4°C 80% 1.6 mph E2.6 kmh E 1.6 mph2.6 kmh 30.47 in1031.8 mb 0.00 in0.0 mm 0.00 in0.0 mm 0.00 in0.0 mm
02:54 AM 23.9°F-4.5°C 18.7°F-7.4°C 80% 1.1 mph E1.8 kmh E 1.3 mph2.1 kmh 30.47 in1031.8 mb 0.00 in0.0 mm 0.00 in0.0 mm 0.00 in0.0 mm
02:59 AM 23.9°F-4.5°C 18.9°F-7.3°C 81% 1.6 mph SE2.6 kmh SE 1.8 mph2.9 kmh 30.47 in1031.8 mb 0.00 in0.0 mm 0.00 in0.0 mm 0.00 in0.0 mm
03:04 AM 23.9°F-4.5°C 18.9°F-7.3°C 81% 1.3 mph E2.1 kmh E 1.6 mph2.6 kmh 30.47 in1031.8 mb 0.00 in0.0 mm 0.00 in0.0 mm 0.00 in0.0 mm
03:09 AM 23.9°F-4.5°C 18.7°F-7.4°C 80% 1.8 mph E2.9 kmh E 2.0 mph3.2 kmh 30.47 in1031.8 mb 0.00 in0.0 mm 0.00 in0.0 mm 0.00 in0.0 mm
03:14 AM 23.9°F-4.5°C 18.7°F-7.4°C 80% 1.1 mph E1.8 kmh E 1.3 mph2.1 kmh 30.47 in1031.8 mb 0.00 in0.0 mm 0.00 in0.0 mm 0.00 in0.0 mm
03:19 AM 23.7°F-4.6°C 18.5°F-7.5°C 80% 0.9 mph SSE1.4 kmh SSE 1.1 mph1.8 kmh 30.47 in1031.8 mb 0.00 in0.0 mm 0.00 in0.0 mm 0.00 in0.0 mm
03:24 AM 23.5°F-4.7°C 18.5°F-7.5°C 81% 1.8 mph SE2.9 kmh SE 2.2 mph3.5 kmh 30.47 in1031.8 mb 0.00 in0.0 mm 0.00 in0.0 mm 0.00 in0.0 mm
03:29 AM 23.5°F-4.7°C 18.5°F-7.5°C 81% 1.3 mph SSE2.1 kmh SSE 1.6 mph2.6 kmh 30.47 in1031.8 mb 0.00 in0.0 mm 0.00 in0.0 mm 0.00 in0.0 mm
03:34 AM 23.4°F-4.8°C 18.3°F-7.6°C 81% 1.6 mph SE2.6 kmh SE 2.0 mph3.2 kmh 30.47 in1031.8 mb 0.00 in0.0 mm 0.00 in0.0 mm 0.00 in0.0 mm
03:39 AM 23.5°F-4.7°C 18.5°F-7.5°C 81% 1.8 mph SE2.9 kmh SE 2.2 mph3.5 kmh 30.47 in1031.8 mb 0.00 in0.0 mm 0.00 in0.0 mm 0.00 in0.0 mm
03:44 AM 23.4°F-4.8°C 18.3°F-7.6°C 81% 1.3 mph SE2.1 kmh SE 1.8 mph2.9 kmh 30.47 in1031.8 mb 0.00 in0.0 mm 0.00 in0.0 mm 0.00 in0.0 mm
03:49 AM 23.4°F-4.8°C 18.1°F-7.7°C 80% 2.0 mph SE3.2 kmh SE 2.5 mph4.0 kmh 30.47 in1031.8 mb 0.00 in0.0 mm 0.00 in0.0 mm 0.00 in0.0 mm
03:54 AM 23.2°F-4.9°C 18.0°F-7.8°C 80% 1.8 mph SE2.9 kmh SE 2.2 mph3.5 kmh 30.47 in1031.8 mb 0.00 in0.0 mm 0.00 in0.0 mm 0.00 in0.0 mm
03:59 AM 23.0°F-5.0°C 17.8°F-7.9°C 80% 1.8 mph SE2.9 kmh SE 2.2 mph3.5 kmh 30.47 in1031.8 mb 0.00 in0.0 mm 0.00 in0.0 mm 0.00 in0.0 mm
04:04 AM 23.2°F-4.9°C 18.1°F-7.7°C 81% 1.6 mph E2.6 kmh E 1.8 mph2.9 kmh 30.47 in1031.8 mb 0.00 in0.0 mm 0.00 in0.0 mm 0.00 in0.0 mm
04:09 AM 23.2°F-4.9°C 18.1°F-7.7°C 81% 2.2 mph SE3.5 kmh SE 2.7 mph4.3 kmh 30.46 in1031.5 mb 0.00 in0.0 mm 0.00 in0.0 mm 0.00 in0.0 mm
04:14 AM 23.4°F-4.8°C 18.3°F-7.6°C 81% 2.2 mph ESE3.5 kmh ESE 2.7 mph4.3 kmh 30.46 in1031.5 mb 0.00 in0.0 mm 0.00 in0.0 mm 0.00 in0.0 mm
04:19 AM 23.5°F-4.7°C 18.5°F-7.5°C 81% 2.0 mph ESE3.2 kmh ESE 2.0 mph3.2 kmh 30.46 in1031.5 mb 0.00 in0.0 mm 0.00 in0.0 mm 0.00 in0.0 mm
04:24 AM 23.5°F-4.7°C 18.5°F-7.5°C 81% 1.8 mph SE2.9 kmh SE 1.8 mph2.9 kmh 30.46 in1031.5 mb 0.00 in0.0 mm 0.00 in0.0 mm 0.00 in0.0 mm
04:29 AM 23.5°F-4.7°C 18.5°F-7.5°C 81% 1.8 mph SE2.9 kmh SE 2.5 mph4.0 kmh 30.46 in1031.5 mb 0.00 in0.0 mm 0.00 in0.0 mm 0.00 in0.0 mm
04:34 AM 23.2°F-4.9°C 18.1°F-7.7°C 81% 1.1 mph SE1.8 kmh SE 1.6 mph2.6 kmh 30.46 in1031.5 mb 0.00 in0.0 mm 0.00 in0.0 mm 0.00 in0.0 mm
04:39 AM 23.2°F-4.9°C 18.1°F-7.7°C 81% 1.6 mph SE2.6 kmh SE 1.8 mph2.9 kmh 30.46 in1031.5 mb 0.00 in0.0 mm 0.00 in0.0 mm 0.00 in0.0 mm
04:44 AM 23.2°F-4.9°C 18.1°F-7.7°C 81% 1.3 mph SE2.1 kmh SE 1.6 mph2.6 kmh 30.46 in1031.5 mb 0.00 in0.0 mm 0.00 in0.0 mm 0.00 in0.0 mm
04:49 AM 23.0°F-5.0°C 17.8°F-7.9°C 80% 1.1 mph SE1.8 kmh SE 3.1 mph5.0 kmh 30.46 in1031.5 mb 0.00 in0.0 mm 0.00 in0.0 mm 0.00 in0.0 mm
04:54 AM 22.8°F-5.1°C 17.8°F-7.9°C 81% 1.1 mph SE1.8 kmh SE 3.1 mph5.0 kmh 30.46 in1031.5 mb 0.00 in0.0 mm 0.00 in0.0 mm 0.00 in0.0 mm
04:59 AM 22.8°F-5.1°C 17.8°F-7.9°C 81% 0.7 mph SE1.1 kmh SE 2.5 mph4.0 kmh 30.46 in1031.5 mb 0.00 in0.0 mm 0.00 in0.0 mm 0.00 in0.0 mm
05:04 AM 22.6°F-5.2°C 17.6°F-8.0°C 81% 0.7 mph SE1.1 kmh SE 0.9 mph1.4 kmh 30.46 in1031.5 mb 0.00 in0.0 mm 0.00 in0.0 mm 0.00 in0.0 mm
05:09 AM 22.6°F-5.2°C 17.6°F-8.0°C 81% 0.7 mph SSE1.1 kmh SSE 1.1 mph1.8 kmh 30.46 in1031.5 mb 0.00 in0.0 mm 0.00 in0.0 mm 0.00 in0.0 mm
05:14 AM 22.3°F-5.4°C 17.4°F-8.1°C 81% 1.3 mph SE2.1 kmh SE 1.6 mph2.6 kmh 30.46 in1031.5 mb 0.00 in0.0 mm 0.00 in0.0 mm 0.00 in0.0 mm
05:19 AM 22.3°F-5.4°C 17.4°F-8.1°C 81% 1.6 mph ESE2.6 kmh ESE 1.8 mph2.9 kmh 30.46 in1031.5 mb 0.00 in0.0 mm 0.00 in0.0 mm 0.00 in0.0 mm
05:24 AM 22.5°F-5.3°C 17.8°F-7.9°C 82% 1.8 mph ESE2.9 kmh ESE 1.8 mph2.9 kmh 30.46 in1031.5 mb 0.00 in0.0 mm 0.00 in0.0 mm 0.00 in0.0 mm
05:29 AM 22.3°F-5.4°C 17.4°F-8.1°C 81% 1.3 mph E2.1 kmh E 1.6 mph2.6 kmh 30.46 in1031.5 mb 0.00 in0.0 mm 0.00 in0.0 mm 0.00 in0.0 mm
05:34 AM 22.3°F-5.4°C 17.4°F-8.1°C 81% 1.6 mph E2.6 kmh E 2.5 mph4.0 kmh 30.45 in1031.2 mb 0.00 in0.0 mm 0.00 in0.0 mm 0.00 in0.0 mm
05:39 AM 22.1°F-5.5°C 17.4°F-8.1°C 82% 1.3 mph SE2.1 kmh SE 1.6 mph2.6 kmh 30.46 in1031.5 mb 0.00 in0.0 mm 0.00 in0.0 mm 0.00 in0.0 mm
05:44 AM 22.1°F-5.5°C 17.4°F-8.1°C 82% 1.6 mph ESE2.6 kmh ESE 1.8 mph2.9 kmh 30.46 in1031.5 mb 0.00 in0.0 mm 0.00 in0.0 mm 0.00 in0.0 mm
05:49 AM 21.9°F-5.6°C 17.2°F-8.2°C 82% 2.0 mph ESE3.2 kmh ESE 2.0 mph3.2 kmh 30.45 in1031.2 mb 0.00 in0.0 mm 0.00 in0.0 mm 0.00 in0.0 mm
05:54 AM 21.7°F-5.7°C 17.1°F-8.3°C 82% 1.6 mph E2.6 kmh E 2.7 mph4.3 kmh 30.46 in1031.5 mb 0.00 in0.0 mm 0.00 in0.0 mm 0.00 in0.0 mm
05:59 AM 21.9°F-5.6°C 17.2°F-8.2°C 82% 0.7 mph SE1.1 kmh SE 0.9 mph1.4 kmh 30.46 in1031.5 mb 0.00 in0.0 mm 0.00 in0.0 mm 0.00 in0.0 mm
06:04 AM 21.7°F-5.7°C 17.1°F-8.3°C 82% 1.6 mph E2.6 kmh E 1.8 mph2.9 kmh 30.45 in1031.2 mb 0.00 in0.0 mm 0.00 in0.0 mm 0.00 in0.0 mm
06:09 AM 21.7°F-5.7°C 17.1°F-8.3°C 82% 1.6 mph E2.6 kmh E 1.8 mph2.9 kmh 30.45 in1031.2 mb 0.00 in0.0 mm 0.00 in0.0 mm 0.00 in0.0 mm
06:14 AM 21.7°F-5.7°C 17.1°F-8.3°C 82% 1.6 mph E2.6 kmh E 3.1 mph5.0 kmh 30.45 in1031.2 mb 0.00 in0.0 mm 0.00 in0.0 mm 0.00 in0.0 mm
06:19 AM 21.7°F-5.7°C 17.4°F-8.1°C 83% 1.3 mph E2.1 kmh E 1.6 mph2.6 kmh 30.46 in1031.5 mb 0.00 in0.0 mm 0.00 in0.0 mm 0.00 in0.0 mm
06:24 AM 21.4°F-5.9°C 16.7°F-8.5°C 82% 0.7 mph SE1.1 kmh SE 1.6 mph2.6 kmh 30.46 in1031.5 mb 0.00 in0.0 mm 0.00 in0.0 mm 0.00 in0.0 mm
06:29 AM 21.6°F-5.8°C 17.2°F-8.2°C 83% 0.7 mph SE1.1 kmh SE 1.6 mph2.6 kmh 30.46 in1031.5 mb 0.00 in0.0 mm 0.00 in0.0 mm 0.00 in0.0 mm
06:34 AM 21.6°F-5.8°C 17.2°F-8.2°C 83% 1.6 mph SE2.6 kmh SE 1.8 mph2.9 kmh 30.47 in1031.8 mb 0.00 in0.0 mm 0.00 in0.0 mm 0.00 in0.0 mm
06:39 AM 21.6°F-5.8°C 17.2°F-8.2°C 83% 0.9 mph SSE1.4 kmh SSE 0.9 mph1.4 kmh 30.47 in1031.8 mb 0.00 in0.0 mm 0.00 in0.0 mm 0.00 in0.0 mm
06:44 AM 21.6°F-5.8°C 17.2°F-8.2°C 83% 0.9 mph SE1.4 kmh SE 1.6 mph2.6 kmh 30.47 in1031.8 mb 0.00 in0.0 mm 0.00 in0.0 mm 0.00 in0.0 mm
06:49 AM 21.2°F-6.0°C 16.5°F-8.6°C 82% 1.3 mph SE2.1 kmh SE 1.6 mph2.6 kmh 30.47 in1031.8 mb 0.00 in0.0 mm 0.00 in0.0 mm 0.00 in0.0 mm
06:54 AM 21.4°F-5.9°C 17.1°F-8.3°C 83% 1.3 mph SE2.1 kmh SE 1.8 mph2.9 kmh 30.47 in1031.8 mb 0.00 in0.0 mm 0.00 in0.0 mm 0.00 in0.0 mm
06:59 AM 21.4°F-5.9°C 17.1°F-8.3°C 83% 1.6 mph SE2.6 kmh SE 1.8 mph2.9 kmh 30.47 in1031.8 mb 0.00 in0.0 mm 0.00 in0.0 mm 0.00 in0.0 mm
07:04 AM 21.4°F-5.9°C 17.1°F-8.3°C 83% 1.8 mph SE2.9 kmh SE 2.0 mph3.2 kmh 30.46 in1031.5 mb 0.00 in0.0 mm 0.00 in0.0 mm 0.00 in0.0 mm
07:09 AM 21.4°F-5.9°C 17.1°F-8.3°C 83% 1.6 mph SE2.6 kmh SE 1.8 mph2.9 kmh 30.47 in1031.8 mb 0.00 in0.0 mm 0.00 in0.0 mm 0.00 in0.0 mm
07:14 AM 21.6°F-5.8°C 17.2°F-8.2°C 83% 1.8 mph SE2.9 kmh SE 2.0 mph3.2 kmh 30.47 in1031.8 mb 0.00 in0.0 mm 0.00 in0.0 mm 0.00 in0.0 mm
07:19 AM 21.6°F-5.8°C 17.2°F-8.2°C 83% 1.6 mph ESE2.6 kmh ESE 1.8 mph2.9 kmh 30.47 in1031.8 mb 0.00 in0.0 mm 0.00 in0.0 mm 0.00 in0.0 mm
07:24 AM 21.6°F-5.8°C 17.2°F-8.2°C 83% 1.6 mph E2.6 kmh E 1.8 mph2.9 kmh 30.47 in1031.8 mb 0.00 in0.0 mm 0.00 in0.0 mm 0.00 in0.0 mm
07:29 AM 21.2°F-6.0°C 16.9°F-8.4°C 83% 1.8 mph E2.9 kmh E 1.8 mph2.9 kmh 30.48 in1032.2 mb 0.00 in0.0 mm 0.00 in0.0 mm 0.00 in0.0 mm
07:34 AM 21.4°F-5.9°C 17.1°F-8.3°C 83% 1.6 mph SE2.6 kmh SE 1.6 mph2.6 kmh 30.48 in1032.2 mb 0.00 in0.0 mm 0.00 in0.0 mm 0.00 in0.0 mm
07:39 AM 21.6°F-5.8°C 17.2°F-8.2°C 83% 1.3 mph SE2.1 kmh SE 1.6 mph2.6 kmh 30.48 in1032.2 mb 0.00 in0.0 mm 0.00 in0.0 mm 0.00 in0.0 mm
07:44 AM 21.4°F-5.9°C 17.1°F-8.3°C 83% 0.9 mph SE1.4 kmh SE 1.1 mph1.8 kmh 30.48 in1032.2 mb 0.00 in0.0 mm 0.00 in0.0 mm 0.00 in0.0 mm
07:49 AM 21.4°F-5.9°C 17.1°F-8.3°C 83% 0.9 mph SE1.4 kmh SE 1.6 mph2.6 kmh 30.49 in1032.5 mb 0.00 in0.0 mm 0.00 in0.0 mm 0.00 in0.0 mm
07:54 AM 21.6°F-5.8°C 17.2°F-8.2°C 83% 1.6 mph SE2.6 kmh SE 1.8 mph2.9 kmh 30.49 in1032.5 mb 0.00 in0.0 mm 0.00 in0.0 mm 0.00 in0.0 mm
07:59 AM 21.6°F-5.8°C 17.2°F-8.2°C 83% 1.6 mph SE2.6 kmh SE 1.8 mph2.9 kmh 30.49 in1032.5 mb 0.00 in0.0 mm 0.00 in0.0 mm 0.00 in0.0 mm
08:04 AM 21.7°F-5.7°C 17.4°F-8.1°C 83% 1.6 mph SE2.6 kmh SE 1.6 mph2.6 kmh 30.49 in1032.5 mb 0.00 in0.0 mm 0.00 in0.0 mm 0.00 in0.0 mm
08:09 AM 21.7°F-5.7°C 17.4°F-8.1°C 83% 1.6 mph ESE2.6 kmh ESE 1.6 mph2.6 kmh 30.49 in1032.5 mb 0.00 in0.0 mm 0.00 in0.0 mm 0.00 in0.0 mm
08:14 AM 21.6°F-5.8°C 17.2°F-8.2°C 83% 1.8 mph SE2.9 kmh SE 1.8 mph2.9 kmh 30.49 in1032.5 mb 0.00 in0.0 mm 0.00 in0.0 mm 0.00 in0.0 mm
08:19 AM 21.6°F-5.8°C 17.2°F-8.2°C 83% 0.9 mph SE1.4 kmh SE 1.1 mph1.8 kmh 30.49 in1032.5 mb 0.00 in0.0 mm 0.00 in0.0 mm 0.00 in0.0 mm
08:24 AM 21.6°F-5.8°C 17.2°F-8.2°C 83% 0.9 mph SE1.4 kmh SE 1.6 mph2.6 kmh 30.49 in1032.5 mb 0.00 in0.0 mm 0.00 in0.0 mm 0.00 in0.0 mm
08:29 AM 21.6°F-5.8°C 17.2°F-8.2°C 83% 1.6 mph SE2.6 kmh SE 1.8 mph2.9 kmh 30.49 in1032.5 mb 0.00 in0.0 mm 0.00 in0.0 mm 0.00 in0.0 mm
08:34 AM 21.4°F-5.9°C 17.2°F-8.2°C 84% 1.1 mph SE1.8 kmh SE 1.6 mph2.6 kmh 30.48 in1032.2 mb 0.00 in0.0 mm 0.00 in0.0 mm 0.00 in0.0 mm
08:39 AM 21.6°F-5.8°C 17.4°F-8.1°C 84% 0.7 mph SE1.1 kmh SE 0.9 mph1.4 kmh 30.48 in1032.2 mb 0.00 in0.0 mm 0.00 in0.0 mm 0.00 in0.0 mm
08:44 AM 21.4°F-5.9°C 17.2°F-8.2°C 84% 0.7 mph SE1.1 kmh SE 0.9 mph1.4 kmh 30.48 in1032.2 mb 0.00 in0.0 mm 0.00 in0.0 mm 0.00 in0.0 mm
08:49 AM 21.6°F-5.8°C 17.4°F-8.1°C 84% 1.6 mph SE2.6 kmh SE 2.0 mph3.2 kmh 30.48 in1032.2 mb 0.00 in0.0 mm 0.00 in0.0 mm 0.00 in0.0 mm
08:54 AM 21.7°F-5.7°C 17.6°F-8.0°C 84% 0.9 mph SE1.4 kmh SE 1.8 mph2.9 kmh 30.48 in1032.2 mb 0.00 in0.0 mm 0.00 in0.0 mm 0.00 in0.0 mm
08:59 AM 21.6°F-5.8°C 17.2°F-8.2°C 83% 1.1 mph SSE1.8 kmh SSE 1.3 mph2.1 kmh 30.49 in1032.5 mb 0.00 in0.0 mm 0.00 in0.0 mm 0.00 in0.0 mm
09:04 AM 21.7°F-5.7°C 17.6°F-8.0°C 84% 0.9 mph SSE1.4 kmh SSE 1.1 mph1.8 kmh 30.49 in1032.5 mb 0.00 in0.0 mm 0.00 in0.0 mm 0.00 in0.0 mm
09:09 AM 21.6°F-5.8°C 17.2°F-8.2°C 83% 1.3 mph SSE2.1 kmh SSE 1.6 mph2.6 kmh 30.49 in1032.5 mb 0.00 in0.0 mm 0.00 in0.0 mm 0.00 in0.0 mm
09:14 AM 21.7°F-5.7°C 17.6°F-8.0°C 84% 1.1 mph SE1.8 kmh SE 1.8 mph2.9 kmh 30.49 in1032.5 mb 0.00 in0.0 mm 0.00 in0.0 mm 0.00 in0.0 mm
09:19 AM 21.9°F-5.6°C 17.6°F-8.0°C 83% 1.8 mph SE2.9 kmh SE 2.0 mph3.2 kmh 30.49 in1032.5 mb 0.00 in0.0 mm 0.00 in0.0 mm 0.00 in0.0 mm
09:24 AM 22.1°F-5.5°C 17.8°F-7.9°C 83% 1.6 mph SE2.6 kmh SE 2.2 mph3.5 kmh 30.49 in1032.5 mb 0.00 in0.0 mm 0.00 in0.0 mm 0.00 in0.0 mm
09:29 AM 21.9°F-5.6°C 17.2°F-8.2°C 82% 2.0 mph SE3.2 kmh SE 2.7 mph4.3 kmh 30.49 in1032.5 mb 0.00 in0.0 mm 0.00 in0.0 mm 0.00 in0.0 mm
09:34 AM 22.1°F-5.5°C 17.4°F-8.1°C 82% 2.0 mph SE3.2 kmh SE 2.5 mph4.0 kmh 30.49 in1032.5 mb 0.00 in0.0 mm 0.00 in0.0 mm 0.00 in0.0 mm
09:39 AM 22.5°F-5.3°C 17.8°F-7.9°C 82% 2.0 mph ESE3.2 kmh ESE 2.2 mph3.5 kmh 30.49 in1032.5 mb 0.00 in0.0 mm 0.00 in0.0 mm 0.00 in0.0 mm
09:44 AM 22.5°F-5.3°C 17.8°F-7.9°C 82% 2.5 mph ESE4.0 kmh ESE 2.7 mph4.3 kmh 30.50 in1032.8 mb 0.00 in0.0 mm 0.00 in0.0 mm 0.00 in0.0 mm
09:49 AM 22.5°F-5.3°C 17.6°F-8.0°C 81% 2.0 mph SE3.2 kmh SE 2.2 mph3.5 kmh 30.50 in1032.8 mb 0.00 in0.0 mm 0.00 in0.0 mm 0.00 in0.0 mm
09:54 AM 22.6°F-5.2°C 17.6°F-8.0°C 81% 1.1 mph SSE1.8 kmh SSE 1.8 mph2.9 kmh 30.50 in1032.8 mb 0.00 in0.0 mm 0.00 in0.0 mm 0.00 in0.0 mm
09:59 AM 22.5°F-5.3°C 17.6°F-8.0°C 81% 1.3 mph SE2.1 kmh SE 1.6 mph2.6 kmh 30.50 in1032.8 mb 0.00 in0.0 mm 0.00 in0.0 mm 0.00 in0.0 mm
10:04 AM 22.8°F-5.1°C 17.8°F-7.9°C 81% 2.0 mph ESE3.2 kmh ESE 2.7 mph4.3 kmh 30.50 in1032.8 mb 0.00 in0.0 mm 0.00 in0.0 mm 0.00 in0.0 mm
10:09 AM 23.0°F-5.0°C 18.0°F-7.8°C 81% 2.0 mph ESE3.2 kmh ESE 2.2 mph3.5 kmh 30.50 in1032.8 mb 0.00 in0.0 mm 0.00 in0.0 mm 0.00 in0.0 mm
10:14 AM 23.2°F-4.9°C 18.0°F-7.8°C 80% 2.0 mph ESE3.2 kmh ESE 2.5 mph4.0 kmh 30.50 in1032.8 mb 0.00 in0.0 mm 0.00 in0.0 mm 0.00 in0.0 mm
10:19 AM 23.4°F-4.8°C 18.1°F-7.7°C 80% 2.5 mph SE4.0 kmh SE 2.7 mph4.3 kmh 30.50 in1032.8 mb 0.00 in0.0 mm 0.00 in0.0 mm 0.00 in0.0 mm
10:24 AM 23.5°F-4.7°C 18.0°F-7.8°C 79% 2.5 mph ESE4.0 kmh ESE 2.9 mph4.7 kmh 30.50 in1032.8 mb 0.00 in0.0 mm 0.00 in0.0 mm 0.00 in0.0 mm
10:29 AM 23.9°F-4.5°C 18.3°F-7.6°C 79% 2.5 mph ESE4.0 kmh ESE 3.1 mph5.0 kmh 30.50 in1032.8 mb 0.00 in0.0 mm 0.00 in0.0 mm 0.00 in0.0 mm
10:34 AM 23.9°F-4.5°C 17.4°F-8.1°C 76% 2.7 mph ESE4.3 kmh ESE 2.9 mph4.7 kmh 30.50 in1032.8 mb 0.00 in0.0 mm 0.00 in0.0 mm 0.00 in0.0 mm
10:39 AM 24.1°F-4.4°C 17.6°F-8.0°C 76% 2.5 mph SE4.0 kmh SE 2.7 mph4.3 kmh 30.51 in1033.2 mb 0.00 in0.0 mm 0.00 in0.0 mm 0.00 in0.0 mm
10:44 AM 24.3°F-4.3°C 17.8°F-7.9°C 76% 3.4 mph E5.5 kmh E 5.1 mph8.2 kmh 30.51 in1033.2 mb 0.00 in0.0 mm 0.00 in0.0 mm 0.00 in0.0 mm
10:49 AM 24.4°F-4.2°C 17.6°F-8.0°C 75% 2.5 mph SE4.0 kmh SE 4.0 mph6.4 kmh 30.51 in1033.2 mb 0.00 in0.0 mm 0.00 in0.0 mm 0.00 in0.0 mm
10:54 AM 24.4°F-4.2°C 17.4°F-8.1°C 74% 2.2 mph ESE3.5 kmh ESE 2.7 mph4.3 kmh 30.51 in1033.2 mb 0.00 in0.0 mm 0.00 in0.0 mm 0.00 in0.0 mm
10:59 AM 24.8°F-4.0°C 18.0°F-7.8°C 75% 2.5 mph SE4.0 kmh SE 3.1 mph5.0 kmh 30.51 in1033.2 mb 0.00 in0.0 mm 0.00 in0.0 mm 0.00 in0.0 mm
11:04 AM 25.0°F-3.9°C 18.5°F-7.5°C 76% 1.8 mph E2.9 kmh E 2.5 mph4.0 kmh 30.51 in1033.2 mb 0.00 in0.0 mm 0.00 in0.0 mm 0.00 in0.0 mm
11:09 AM 25.3°F-3.7°C 18.9°F-7.3°C 76% 2.5 mph ESE4.0 kmh ESE 3.1 mph5.0 kmh 30.51 in1033.2 mb 0.00 in0.0 mm 0.00 in0.0 mm 0.00 in0.0 mm
11:14 AM 25.7°F-3.5°C 19.2°F-7.1°C 76% 2.5 mph ESE4.0 kmh ESE 2.9 mph4.7 kmh 30.51 in1033.2 mb 0.00 in0.0 mm 0.00 in0.0 mm 0.00 in0.0 mm
11:19 AM 25.9°F-3.4°C 19.0°F-7.2°C 75% 1.3 mph ESE2.1 kmh ESE 3.1 mph5.0 kmh 30.51 in1033.2 mb 0.00 in0.0 mm 0.00 in0.0 mm 0.00 in0.0 mm
11:24 AM 26.2°F-3.2°C 19.4°F-7.0°C 75% 2.0 mph E3.2 kmh E 3.1 mph5.0 kmh 30.51 in1033.2 mb 0.00 in0.0 mm 0.00 in0.0 mm 0.00 in0.0 mm
11:29 AM 26.4°F-3.1°C 19.2°F-7.1°C 74% 2.2 mph SE3.5 kmh SE 2.7 mph4.3 kmh 30.51 in1033.2 mb 0.00 in0.0 mm 0.00 in0.0 mm 0.00 in0.0 mm
11:34 AM 26.6°F-3.0°C 18.9°F-7.3°C 72% 0.9 mph NE1.4 kmh NE 2.9 mph4.7 kmh 30.51 in1033.2 mb 0.00 in0.0 mm 0.00 in0.0 mm 0.00 in0.0 mm
11:39 AM 26.8°F-2.9°C 19.0°F-7.2°C 72% 3.4 mph SE5.5 kmh SE 3.8 mph6.1 kmh 30.51 in1033.2 mb 0.00 in0.0 mm 0.00 in0.0 mm 0.00 in0.0 mm
11:44 AM 27.0°F-2.8°C 18.9°F-7.3°C 71% 1.8 mph E2.9 kmh E 2.7 mph4.3 kmh 30.50 in1032.8 mb 0.00 in0.0 mm 0.00 in0.0 mm 0.00 in0.0 mm
11:49 AM 27.1°F-2.7°C 18.7°F-7.4°C 70% 2.7 mph SE4.3 kmh SE 4.0 mph6.4 kmh 30.50 in1032.8 mb 0.00 in0.0 mm 0.00 in0.0 mm 0.00 in0.0 mm
11:54 AM 27.3°F-2.6°C 18.9°F-7.3°C 70% 2.9 mph ESE4.7 kmh ESE 3.8 mph6.1 kmh 30.50 in1032.8 mb 0.00 in0.0 mm 0.00 in0.0 mm 0.00 in0.0 mm
11:59 AM 27.5°F-2.5°C 19.0°F-7.2°C 70% 2.2 mph ESE3.5 kmh ESE 3.6 mph5.8 kmh 30.50 in1032.8 mb 0.00 in0.0 mm 0.00 in0.0 mm 0.00 in0.0 mm
12:04 PM 27.7°F-2.4°C 19.2°F-7.1°C 70% 2.7 mph ESE4.3 kmh ESE 4.0 mph6.4 kmh 30.50 in1032.8 mb 0.00 in0.0 mm 0.00 in0.0 mm 0.00 in0.0 mm
12:09 PM 27.9°F-2.3°C 19.4°F-7.0°C 70% 3.1 mph SE5.0 kmh SE 6.3 mph10.1 kmh 30.50 in1032.8 mb 0.00 in0.0 mm 0.00 in0.0 mm 0.00 in0.0 mm
12:14 PM 28.0°F-2.2°C 19.6°F-6.9°C 70% 3.1 mph SE5.0 kmh SE 4.3 mph6.9 kmh 30.50 in1032.8 mb 0.00 in0.0 mm 0.00 in0.0 mm 0.00 in0.0 mm
12:19 PM 28.4°F-2.0°C 19.9°F-6.7°C 70% 1.8 mph ENE2.9 kmh ENE 2.7 mph4.3 kmh 30.50 in1032.8 mb 0.00 in0.0 mm 0.00 in0.0 mm 0.00 in0.0 mm
12:24 PM 28.6°F-1.9°C 19.8°F-6.8°C 69% 1.8 mph ESE2.9 kmh ESE 3.6 mph5.8 kmh 30.50 in1032.8 mb 0.00 in0.0 mm 0.00 in0.0 mm 0.00 in0.0 mm
12:29 PM 28.6°F-1.9°C 19.8°F-6.8°C 69% 2.9 mph SE4.7 kmh SE 4.0 mph6.4 kmh 30.50 in1032.8 mb 0.00 in0.0 mm 0.00 in0.0 mm 0.00 in0.0 mm
12:34 PM 28.8°F-1.8°C 19.9°F-6.7°C 69% 2.7 mph SE4.3 kmh SE 4.3 mph6.9 kmh 30.50 in1032.8 mb 0.00 in0.0 mm 0.00 in0.0 mm 0.00 in0.0 mm
12:39 PM 28.9°F-1.7°C 20.1°F-6.6°C 69% 3.1 mph S5.0 kmh S 6.3 mph10.1 kmh 30.50 in1032.8 mb 0.00 in0.0 mm 0.00 in0.0 mm 0.00 in0.0 mm
12:44 PM 29.1°F-1.6°C 20.3°F-6.5°C 69% 0.9 mph E1.4 kmh E 2.5 mph4.0 kmh 30.49 in1032.5 mb 0.00 in0.0 mm 0.00 in0.0 mm 0.00 in0.0 mm
12:49 PM 29.3°F-1.5°C 19.4°F-7.0°C 66% 2.0 mph SSE3.2 kmh SSE 4.3 mph6.9 kmh 30.49 in1032.5 mb 0.00 in0.0 mm 0.00 in0.0 mm 0.00 in0.0 mm
12:54 PM 29.3°F-1.5°C 19.4°F-7.0°C 66% 2.5 mph SE4.0 kmh SE 4.3 mph6.9 kmh 30.49 in1032.5 mb 0.00 in0.0 mm 0.00 in0.0 mm 0.00 in0.0 mm
12:59 PM 29.5°F-1.4°C 19.6°F-6.9°C 66% 2.0 mph SSE3.2 kmh SSE 4.5 mph7.2 kmh 30.49 in1032.5 mb 0.00 in0.0 mm 0.00 in0.0 mm 0.00 in0.0 mm
01:03 PM 29.7°F-1.3°C 19.4°F-7.0°C 65% 2.9 mph ESE4.7 kmh ESE 4.3 mph6.9 kmh 30.49 in1032.5 mb 0.00 in0.0 mm 0.00 in0.0 mm 0.00 in0.0 mm
01:09 PM 29.7°F-1.3°C 19.4°F-7.0°C 65% 2.5 mph SSE4.0 kmh SSE 4.0 mph6.4 kmh 30.48 in1032.2 mb 0.00 in0.0 mm 0.00 in0.0 mm 0.00 in0.0 mm
01:14 PM 29.8°F-1.2°C 19.9°F-6.7°C 66% 0.7 mph ESE1.1 kmh ESE 1.6 mph2.6 kmh 30.48 in1032.2 mb 0.00 in0.0 mm 0.00 in0.0 mm 0.00 in0.0 mm
01:19 PM 30.0°F-1.1°C 20.1°F-6.6°C 66% 1.3 mph SE2.1 kmh SE 2.9 mph4.7 kmh 30.48 in1032.2 mb 0.00 in0.0 mm 0.00 in0.0 mm 0.00 in0.0 mm
01:24 PM 30.0°F-1.1°C 19.4°F-7.0°C 64% 1.3 mph ESE2.1 kmh ESE 2.7 mph4.3 kmh 30.48 in1032.2 mb 0.00 in0.0 mm 0.00 in0.0 mm 0.00 in0.0 mm
01:29 PM 30.2°F-1.0°C 19.4°F-7.0°C 64% 3.4 mph ESE5.5 kmh ESE 4.7 mph7.6 kmh 30.47 in1031.8 mb 0.00 in0.0 mm 0.00 in0.0 mm 0.00 in0.0 mm
01:34 PM 30.2°F-1.0°C 19.4°F-7.0°C 64% 1.1 mph E1.8 kmh E 2.9 mph4.7 kmh 30.47 in1031.8 mb 0.00 in0.0 mm 0.00 in0.0 mm 0.00 in0.0 mm
01:39 PM 30.4°F-0.9°C 19.2°F-7.1°C 63% 1.8 mph NE2.9 kmh NE 3.6 mph5.8 kmh 30.46 in1031.5 mb 0.00 in0.0 mm 0.00 in0.0 mm 0.00 in0.0 mm
01:44 PM 30.4°F-0.9°C 19.2°F-7.1°C 63% 1.8 mph ESE2.9 kmh ESE 3.4 mph5.5 kmh 30.46 in1031.5 mb 0.00 in0.0 mm 0.00 in0.0 mm 0.00 in0.0 mm
01:49 PM 30.6°F-0.8°C 19.8°F-6.8°C 64% 2.0 mph E3.2 kmh E 4.0 mph6.4 kmh 30.46 in1031.5 mb 0.00 in0.0 mm 0.00 in0.0 mm 0.00 in0.0 mm
01:54 PM 30.6°F-0.8°C 19.4°F-7.0°C 63% 1.6 mph ESE2.6 kmh ESE 3.8 mph6.1 kmh 30.46 in1031.5 mb 0.00 in0.0 mm 0.00 in0.0 mm 0.00 in0.0 mm
01:59 PM 30.7°F-0.7°C 19.6°F-6.9°C 63% 1.3 mph E2.1 kmh E 2.9 mph4.7 kmh 30.46 in1031.5 mb 0.00 in0.0 mm 0.00 in0.0 mm 0.00 in0.0 mm
02:04 PM 30.9°F-0.6°C 19.8°F-6.8°C 63% 2.5 mph SE4.0 kmh SE 3.6 mph5.8 kmh 30.46 in1031.5 mb 0.00 in0.0 mm 0.00 in0.0 mm 0.00 in0.0 mm
02:09 PM 30.9°F-0.6°C 19.8°F-6.8°C 63% 2.0 mph ESE3.2 kmh ESE 2.7 mph4.3 kmh 30.45 in1031.2 mb 0.00 in0.0 mm 0.00 in0.0 mm 0.00 in0.0 mm
02:14 PM 31.1°F-0.5°C 20.3°F-6.5°C 64% 3.4 mph SE5.5 kmh SE 4.7 mph7.6 kmh 30.45 in1031.2 mb 0.00 in0.0 mm 0.00 in0.0 mm 0.00 in0.0 mm
02:19 PM 31.1°F-0.5°C 19.9°F-6.7°C 63% 2.0 mph ESE3.2 kmh ESE 3.4 mph5.5 kmh 30.44 in1030.8 mb 0.00 in0.0 mm 0.00 in0.0 mm 0.00 in0.0 mm
02:24 PM 31.1°F-0.5°C 19.2°F-7.1°C 61% 1.3 mph NNE2.1 kmh NNE 2.9 mph4.7 kmh 30.44 in1030.8 mb 0.00 in0.0 mm 0.00 in0.0 mm 0.00 in0.0 mm
02:29 PM 31.3°F-0.4°C 19.4°F-7.0°C 61% 2.0 mph ESE3.2 kmh ESE 2.7 mph4.3 kmh 30.44 in1030.8 mb 0.00 in0.0 mm 0.00 in0.0 mm 0.00 in0.0 mm
02:34 PM 31.1°F-0.5°C 19.9°F-6.7°C 63% 1.8 mph E2.9 kmh E 2.7 mph4.3 kmh 30.44 in1030.8 mb 0.00 in0.0 mm 0.00 in0.0 mm 0.00 in0.0 mm
02:39 PM 31.1°F-0.5°C 18.9°F-7.3°C 60% 1.1 mph ENE1.8 kmh ENE 2.0 mph3.2 kmh 30.44 in1030.8 mb 0.00 in0.0 mm 0.00 in0.0 mm 0.00 in0.0 mm
02:44 PM 31.1°F-0.5°C 18.9°F-7.3°C 60% 1.3 mph ENE2.1 kmh ENE 2.0 mph3.2 kmh 30.44 in1030.8 mb 0.00 in0.0 mm 0.00 in0.0 mm 0.00 in0.0 mm
02:49 PM 31.1°F-0.5°C 18.9°F-7.3°C 60% 1.3 mph ENE2.1 kmh ENE 2.5 mph4.0 kmh 30.44 in1030.8 mb 0.00 in0.0 mm 0.00 in0.0 mm 0.00 in0.0 mm
02:54 PM 31.1°F-0.5°C 18.9°F-7.3°C 60% 1.1 mph E1.8 kmh E 1.8 mph2.9 kmh 30.43 in1030.5 mb 0.00 in0.0 mm 0.00 in0.0 mm 0.00 in0.0 mm
02:59 PM 31.1°F-0.5°C 19.2°F-7.1°C 61% 2.2 mph ESE3.5 kmh ESE 2.5 mph4.0 kmh 30.43 in1030.5 mb 0.00 in0.0 mm 0.00 in0.0 mm 0.00 in0.0 mm
03:04 PM 31.1°F-0.5°C 19.2°F-7.1°C 61% 2.7 mph ESE4.3 kmh ESE 2.9 mph4.7 kmh 30.43 in1030.5 mb 0.00 in0.0 mm 0.00 in0.0 mm 0.00 in0.0 mm
03:09 PM 31.1°F-0.5°C 18.9°F-7.3°C 60% 2.0 mph ESE3.2 kmh ESE 2.9 mph4.7 kmh 30.43 in1030.5 mb 0.00 in0.0 mm 0.00 in0.0 mm 0.00 in0.0 mm
03:14 PM 31.1°F-0.5°C 18.9°F-7.3°C 60% 2.7 mph SE4.3 kmh SE 4.7 mph7.6 kmh 30.43 in1030.5 mb 0.00 in0.0 mm 0.00 in0.0 mm 0.00 in0.0 mm
03:19 PM 30.9°F-0.6°C 18.3°F-7.6°C 59% 0.7 mph SE1.1 kmh SE 2.0 mph3.2 kmh 30.43 in1030.5 mb 0.00 in0.0 mm 0.00 in0.0 mm 0.00 in0.0 mm
03:24 PM 30.9°F-0.6°C 18.7°F-7.4°C 60% 0.2 mph ESE0.3 kmh ESE 2.2 mph3.5 kmh 30.43 in1030.5 mb 0.00 in0.0 mm 0.00 in0.0 mm 0.00 in0.0 mm
03:29 PM 30.9°F-0.6°C 18.7°F-7.4°C 60% 0.7 mph E1.1 kmh E 2.2 mph3.5 kmh 30.43 in1030.5 mb 0.00 in0.0 mm 0.00 in0.0 mm 0.00 in0.0 mm
03:34 PM 31.1°F-0.5°C 19.2°F-7.1°C 61% 1.3 mph ESE2.1 kmh ESE 2.0 mph3.2 kmh 30.43 in1030.5 mb 0.00 in0.0 mm 0.00 in0.0 mm 0.00 in0.0 mm
03:39 PM 31.1°F-0.5°C 18.9°F-7.3°C 60% 2.5 mph ESE4.0 kmh ESE 3.6 mph5.8 kmh 30.43 in1030.5 mb 0.00 in0.0 mm 0.00 in0.0 mm 0.00 in0.0 mm
03:44 PM 31.1°F-0.5°C 18.5°F-7.5°C 59% 1.6 mph ESE2.6 kmh ESE 3.6 mph5.8 kmh 30.42 in1030.1 mb 0.00 in0.0 mm 0.00 in0.0 mm 0.00 in0.0 mm
03:49 PM 31.1°F-0.5°C 18.5°F-7.5°C 59% 1.6 mph E2.6 kmh E 2.7 mph4.3 kmh 30.42 in1030.1 mb 0.00 in0.0 mm 0.00 in0.0 mm 0.00 in0.0 mm
03:54 PM 31.1°F-0.5°C 18.9°F-7.3°C 60% 1.8 mph SE2.9 kmh SE 2.7 mph4.3 kmh 30.42 in1030.1 mb 0.00 in0.0 mm 0.00 in0.0 mm 0.00 in0.0 mm
03:59 PM 31.1°F-0.5°C 18.0°F-7.8°C 58% 2.0 mph ENE3.2 kmh ENE 2.9 mph4.7 kmh 30.42 in1030.1 mb 0.00 in0.0 mm 0.00 in0.0 mm 0.00 in0.0 mm
04:04 PM 31.1°F-0.5°C 18.0°F-7.8°C 58% 2.0 mph ESE3.2 kmh ESE 2.7 mph4.3 kmh 30.42 in1030.1 mb 0.00 in0.0 mm 0.00 in0.0 mm 0.00 in0.0 mm
04:09 PM 31.1°F-0.5°C 18.5°F-7.5°C 59% 1.1 mph ESE1.8 kmh ESE 1.8 mph2.9 kmh 30.42 in1030.1 mb 0.00 in0.0 mm 0.00 in0.0 mm 0.00 in0.0 mm
04:14 PM 31.1°F-0.5°C 19.2°F-7.1°C 61% 1.8 mph ESE2.9 kmh ESE 2.7 mph4.3 kmh 30.42 in1030.1 mb 0.00 in0.0 mm 0.00 in0.0 mm 0.00 in0.0 mm
04:19 PM 31.1°F-0.5°C 18.9°F-7.3°C 60% 2.5 mph SE4.0 kmh SE 3.8 mph6.1 kmh 30.42 in1030.1 mb 0.00 in0.0 mm 0.00 in0.0 mm 0.00 in0.0 mm
04:24 PM 31.1°F-0.5°C 18.5°F-7.5°C 59% 2.7 mph ESE4.3 kmh ESE 3.6 mph5.8 kmh 30.42 in1030.1 mb 0.00 in0.0 mm 0.00 in0.0 mm 0.00 in0.0 mm
04:29 PM 30.9°F-0.6°C 18.3°F-7.6°C 59% 1.8 mph ESE2.9 kmh ESE 2.7 mph4.3 kmh 30.42 in1030.1 mb 0.00 in0.0 mm 0.00 in0.0 mm 0.00 in0.0 mm
04:34 PM 30.9°F-0.6°C 17.8°F-7.9°C 58% 1.8 mph ESE2.9 kmh ESE 2.5 mph4.0 kmh 30.42 in1030.1 mb 0.00 in0.0 mm 0.00 in0.0 mm 0.00 in0.0 mm
04:39 PM 30.9°F-0.6°C 18.3°F-7.6°C 59% 2.0 mph E3.2 kmh E 3.6 mph5.8 kmh 30.42 in1030.1 mb 0.00 in0.0 mm 0.00 in0.0 mm 0.00 in0.0 mm
04:44 PM 30.9°F-0.6°C 19.0°F-7.2°C 61% 1.8 mph ENE2.9 kmh ENE 2.5 mph4.0 kmh 30.42 in1030.1 mb 0.00 in0.0 mm 0.00 in0.0 mm 0.00 in0.0 mm
04:49 PM 30.9°F-0.6°C 19.0°F-7.2°C 61% 1.6 mph E2.6 kmh E 2.0 mph3.2 kmh 30.42 in1030.1 mb 0.00 in0.0 mm 0.00 in0.0 mm 0.00 in0.0 mm
04:54 PM 30.9°F-0.6°C 18.7°F-7.4°C 60% 1.8 mph SE2.9 kmh SE 2.7 mph4.3 kmh 30.42 in1030.1 mb 0.00 in0.0 mm 0.00 in0.0 mm 0.00 in0.0 mm
04:59 PM 30.9°F-0.6°C 19.0°F-7.2°C 61% 2.2 mph ESE3.5 kmh ESE 2.9 mph4.7 kmh 30.42 in1030.1 mb 0.00 in0.0 mm 0.00 in0.0 mm 0.00 in0.0 mm
05:04 PM 30.9°F-0.6°C 19.0°F-7.2°C 61% 2.2 mph SE3.5 kmh SE 2.7 mph4.3 kmh 30.42 in1030.1 mb 0.00 in0.0 mm 0.00 in0.0 mm 0.00 in0.0 mm
05:09 PM 30.9°F-0.6°C 19.0°F-7.2°C 61% 0.7 mph NE1.1 kmh NE 2.7 mph4.3 kmh 30.42 in1030.1 mb 0.00 in0.0 mm 0.00 in0.0 mm 0.00 in0.0 mm
05:14 PM 30.9°F-0.6°C 19.0°F-7.2°C 61% 2.0 mph ESE3.2 kmh ESE 2.9 mph4.7 kmh 30.42 in1030.1 mb 0.00 in0.0 mm 0.00 in0.0 mm 0.00 in0.0 mm
05:19 PM 30.7°F-0.7°C 18.5°F-7.5°C 60% 1.3 mph E2.1 kmh E 2.0 mph3.2 kmh 30.42 in1030.1 mb 0.00 in0.0 mm 0.00 in0.0 mm 0.00 in0.0 mm
05:24 PM 30.9°F-0.6°C 19.0°F-7.2°C 61% 0.2 mph ENE0.3 kmh ENE 1.1 mph1.8 kmh 30.42 in1030.1 mb 0.00 in0.0 mm 0.00 in0.0 mm 0.00 in0.0 mm
05:29 PM 30.7°F-0.7°C 18.5°F-7.5°C 60% 1.6 mph E2.6 kmh E 2.0 mph3.2 kmh 30.42 in1030.1 mb 0.00 in0.0 mm 0.00 in0.0 mm 0.00 in0.0 mm
05:34 PM 30.6°F-0.8°C 18.7°F-7.4°C 61% 0.2 mph ENE0.3 kmh ENE 1.3 mph2.1 kmh 30.42 in1030.1 mb 0.00 in0.0 mm 0.00 in0.0 mm 0.00 in0.0 mm
05:39 PM 30.4°F-0.9°C 18.5°F-7.5°C 61% 0.9 mph ESE1.4 kmh ESE 2.5 mph4.0 kmh 30.42 in1030.1 mb 0.00 in0.0 mm 0.00 in0.0 mm 0.00 in0.0 mm
05:44 PM 30.6°F-0.8°C 18.7°F-7.4°C 61% 0.9 mph ESE1.4 kmh ESE 1.8 mph2.9 kmh 30.42 in1030.1 mb 0.00 in0.0 mm 0.00 in0.0 mm 0.00 in0.0 mm
05:49 PM 30.4°F-0.9°C 18.5°F-7.5°C 61% 0.9 mph ESE1.4 kmh ESE 2.5 mph4.0 kmh 30.42 in1030.1 mb 0.00 in0.0 mm 0.00 in0.0 mm 0.00 in0.0 mm
05:54 PM 30.4°F-0.9°C 18.5°F-7.5°C 61% 1.8 mph E2.9 kmh E 2.9 mph4.7 kmh 30.42 in1030.1 mb 0.00 in0.0 mm 0.00 in0.0 mm 0.00 in0.0 mm
05:59 PM 30.2°F-1.0°C 19.0°F-7.2°C 63% 3.1 mph E5.0 kmh E 6.0 mph9.7 kmh 30.43 in1030.5 mb 0.00 in0.0 mm 0.00 in0.0 mm 0.00 in0.0 mm
06:04 PM 30.2°F-1.0°C 18.3°F-7.6°C 61% 2.7 mph SE4.3 kmh SE 3.8 mph6.1 kmh 30.43 in1030.5 mb 0.00 in0.0 mm 0.00 in0.0 mm 0.00 in0.0 mm
06:09 PM 30.0°F-1.1°C 18.9°F-7.3°C 63% 2.5 mph ESE4.0 kmh ESE 3.8 mph6.1 kmh 30.43 in1030.5 mb 0.00 in0.0 mm 0.00 in0.0 mm 0.00 in0.0 mm
06:14 PM 29.8°F-1.2°C 18.9°F-7.3°C 63% 1.8 mph ESE2.9 kmh ESE 2.9 mph4.7 kmh 30.42 in1030.1 mb 0.00 in0.0 mm 0.00 in0.0 mm 0.00 in0.0 mm
06:19 PM 29.8°F-1.2°C 19.2°F-7.1°C 64% 1.6 mph ENE2.6 kmh ENE 2.7 mph4.3 kmh 30.43 in1030.5 mb 0.00 in0.0 mm 0.00 in0.0 mm 0.00 in0.0 mm
06:24 PM 29.7°F-1.3°C 19.0°F-7.2°C 64% 1.6 mph ESE2.6 kmh ESE 3.6 mph5.8 kmh 30.43 in1030.5 mb 0.00 in0.0 mm 0.00 in0.0 mm 0.00 in0.0 mm
06:29 PM 29.7°F-1.3°C 19.4°F-7.0°C 65% 2.7 mph ESE4.3 kmh ESE 4.0 mph6.4 kmh 30.43 in1030.5 mb 0.00 in0.0 mm 0.00 in0.0 mm 0.00 in0.0 mm
06:34 PM 29.5°F-1.4°C 19.6°F-6.9°C 66% 3.1 mph SE5.0 kmh SE 4.3 mph6.9 kmh 30.43 in1030.5 mb 0.00 in0.0 mm 0.00 in0.0 mm 0.00 in0.0 mm
06:39 PM 29.3°F-1.5°C 20.1°F-6.6°C 68% 1.3 mph SSE2.1 kmh SSE 2.9 mph4.7 kmh 30.44 in1030.8 mb 0.00 in0.0 mm 0.00 in0.0 mm 0.00 in0.0 mm
06:44 PM 29.3°F-1.5°C 19.4°F-7.0°C 66% 1.3 mph SE2.1 kmh SE 2.9 mph4.7 kmh 30.44 in1030.8 mb 0.00 in0.0 mm 0.00 in0.0 mm 0.00 in0.0 mm
06:49 PM 29.3°F-1.5°C 20.1°F-6.6°C 68% 2.7 mph SE4.3 kmh SE 3.1 mph5.0 kmh 30.44 in1030.8 mb 0.00 in0.0 mm 0.00 in0.0 mm 0.00 in0.0 mm
06:54 PM 29.3°F-1.5°C 19.4°F-7.0°C 66% 2.2 mph ESE3.5 kmh ESE 2.5 mph4.0 kmh 30.44 in1030.8 mb 0.00 in0.0 mm 0.00 in0.0 mm 0.00 in0.0 mm
06:59 PM 29.3°F-1.5°C 20.1°F-6.6°C 68% 1.3 mph ESE2.1 kmh ESE 2.0 mph3.2 kmh 30.44 in1030.8 mb 0.00 in0.0 mm 0.00 in0.0 mm 0.00 in0.0 mm
07:04 PM 29.1°F-1.6°C 19.2°F-7.1°C 66% 2.7 mph ESE4.3 kmh ESE 4.7 mph7.6 kmh 30.44 in1030.8 mb 0.00 in0.0 mm 0.00 in0.0 mm 0.00 in0.0 mm
07:09 PM 29.1°F-1.6°C 19.2°F-7.1°C 66% 2.7 mph ESE4.3 kmh ESE 4.3 mph6.9 kmh 30.44 in1030.8 mb 0.00 in0.0 mm 0.00 in0.0 mm 0.00 in0.0 mm
07:14 PM 28.9°F-1.7°C 19.8°F-6.8°C 68% 2.7 mph SE4.3 kmh SE 3.6 mph5.8 kmh 30.44 in1030.8 mb 0.00 in0.0 mm 0.00 in0.0 mm 0.00 in0.0 mm
07:19 PM 28.9°F-1.7°C 20.1°F-6.6°C 69% 2.7 mph ESE4.3 kmh ESE 4.0 mph6.4 kmh 30.44 in1030.8 mb 0.00 in0.0 mm 0.00 in0.0 mm 0.00 in0.0 mm
07:24 PM 28.9°F-1.7°C 20.1°F-6.6°C 69% 2.7 mph E4.3 kmh E 4.7 mph7.6 kmh 30.44 in1030.8 mb 0.00 in0.0 mm 0.00 in0.0 mm 0.00 in0.0 mm
07:29 PM 28.8°F-1.8°C 20.1°F-6.6°C 70% 1.8 mph NE2.9 kmh NE 2.9 mph4.7 kmh 30.44 in1030.8 mb 0.00 in0.0 mm 0.00 in0.0 mm 0.00 in0.0 mm
07:34 PM 28.6°F-1.9°C 20.7°F-6.3°C 72% 2.7 mph ESE4.3 kmh ESE 4.5 mph7.2 kmh 30.44 in1030.8 mb 0.00 in0.0 mm 0.00 in0.0 mm 0.00 in0.0 mm
07:39 PM 28.6°F-1.9°C 20.3°F-6.5°C 71% 2.7 mph ESE4.3 kmh ESE 4.0 mph6.4 kmh 30.44 in1030.8 mb 0.00 in0.0 mm 0.00 in0.0 mm 0.00 in0.0 mm
07:44 PM 28.4°F-2.0°C 20.1°F-6.6°C 71% 1.3 mph E2.1 kmh E 2.2 mph3.5 kmh 30.44 in1030.8 mb 0.00 in0.0 mm 0.00 in0.0 mm 0.00 in0.0 mm
07:49 PM 28.4°F-2.0°C 21.2°F-6.0°C 74% 2.0 mph E3.2 kmh E 3.1 mph5.0 kmh 30.44 in1030.8 mb 0.00 in0.0 mm 0.00 in0.0 mm 0.00 in0.0 mm
07:54 PM 28.2°F-2.1°C 21.0°F-6.1°C 74% 1.3 mph E2.1 kmh E 2.2 mph3.5 kmh 30.43 in1030.5 mb 0.00 in0.0 mm 0.00 in0.0 mm 0.00 in0.0 mm
07:59 PM 28.0°F-2.2°C 20.8°F-6.2°C 74% 2.0 mph E3.2 kmh E 2.7 mph4.3 kmh 30.44 in1030.8 mb 0.00 in0.0 mm 0.00 in0.0 mm 0.00 in0.0 mm
08:04 PM 27.9°F-2.3°C 21.0°F-6.1°C 75% 2.0 mph E3.2 kmh E 2.5 mph4.0 kmh 30.43 in1030.5 mb 0.00 in0.0 mm 0.00 in0.0 mm 0.00 in0.0 mm
08:09 PM 27.9°F-2.3°C 21.0°F-6.1°C 75% 1.3 mph E2.1 kmh E 1.8 mph2.9 kmh 30.43 in1030.5 mb 0.00 in0.0 mm 0.00 in0.0 mm 0.00 in0.0 mm
08:14 PM 27.9°F-2.3°C 21.0°F-6.1°C 75% 1.6 mph E2.6 kmh E 2.5 mph4.0 kmh 30.44 in1030.8 mb 0.00 in0.0 mm 0.00 in0.0 mm 0.00 in0.0 mm
08:19 PM 27.9°F-2.3°C 21.2°F-6.0°C 76% 2.0 mph E3.2 kmh E 2.5 mph4.0 kmh 30.43 in1030.5 mb 0.00 in0.0 mm 0.00 in0.0 mm 0.00 in0.0 mm
08:24 PM 27.9°F-2.3°C 21.2°F-6.0°C 76% 2.5 mph ESE4.0 kmh ESE 3.6 mph5.8 kmh 30.44 in1030.8 mb 0.00 in0.0 mm 0.00 in0.0 mm 0.00 in0.0 mm
08:29 PM 27.9°F-2.3°C 21.2°F-6.0°C 76% 2.0 mph ESE3.2 kmh ESE 2.2 mph3.5 kmh 30.43 in1030.5 mb 0.00 in0.0 mm 0.00 in0.0 mm 0.00 in0.0 mm
08:34 PM 27.9°F-2.3°C 21.6°F-5.8°C 77% 2.9 mph E4.7 kmh E 5.4 mph8.7 kmh 30.43 in1030.5 mb 0.00 in0.0 mm 0.00 in0.0 mm 0.00 in0.0 mm
08:39 PM 27.7°F-2.4°C 21.4°F-5.9°C 77% 1.8 mph E2.9 kmh E 2.9 mph4.7 kmh 30.43 in1030.5 mb 0.00 in0.0 mm 0.00 in0.0 mm 0.00 in0.0 mm
08:44 PM 27.7°F-2.4°C 22.3°F-5.4°C 80% 1.8 mph SE2.9 kmh SE 2.7 mph4.3 kmh 30.43 in1030.5 mb 0.00 in0.0 mm 0.00 in0.0 mm 0.00 in0.0 mm
08:49 PM 27.9°F-2.3°C 22.5°F-5.3°C 80% 1.8 mph SE2.9 kmh SE 2.0 mph3.2 kmh 30.43 in1030.5 mb 0.00 in0.0 mm 0.00 in0.0 mm 0.00 in0.0 mm
08:54 PM 27.9°F-2.3°C 22.5°F-5.3°C 80% 1.3 mph E2.1 kmh E 1.8 mph2.9 kmh 30.43 in1030.5 mb 0.00 in0.0 mm 0.00 in0.0 mm 0.00 in0.0 mm
08:59 PM 27.7°F-2.4°C 22.6°F-5.2°C 81% 1.1 mph E1.8 kmh E 1.8 mph2.9 kmh 30.43 in1030.5 mb 0.00 in0.0 mm 0.00 in0.0 mm 0.00 in0.0 mm
09:04 PM 27.7°F-2.4°C 22.6°F-5.2°C 81% 1.3 mph ESE2.1 kmh ESE 2.0 mph3.2 kmh 30.43 in1030.5 mb 0.00 in0.0 mm 0.00 in0.0 mm 0.00 in0.0 mm
09:09 PM 27.7°F-2.4°C 22.6°F-5.2°C 81% 1.6 mph E2.6 kmh E 2.0 mph3.2 kmh 30.42 in1030.1 mb 0.00 in0.0 mm 0.00 in0.0 mm 0.00 in0.0 mm
09:14 PM 27.5°F-2.5°C 22.5°F-5.3°C 81% 1.6 mph ENE2.6 kmh ENE 2.7 mph4.3 kmh 30.42 in1030.1 mb 0.00 in0.0 mm 0.00 in0.0 mm 0.00 in0.0 mm
09:19 PM 27.3°F-2.6°C 22.3°F-5.4°C 81% 1.6 mph ENE2.6 kmh ENE 2.0 mph3.2 kmh 30.42 in1030.1 mb 0.00 in0.0 mm 0.00 in0.0 mm 0.00 in0.0 mm
09:24 PM 27.1°F-2.7°C 22.1°F-5.5°C 81% 1.3 mph NE2.1 kmh NE 2.2 mph3.5 kmh 30.42 in1030.1 mb 0.00 in0.0 mm 0.00 in0.0 mm 0.00 in0.0 mm
09:29 PM 27.1°F-2.7°C 22.5°F-5.3°C 82% 1.6 mph NE2.6 kmh NE 2.5 mph4.0 kmh 30.41 in1029.8 mb 0.00 in0.0 mm 0.00 in0.0 mm 0.00 in0.0 mm
09:34 PM 27.1°F-2.7°C 22.5°F-5.3°C 82% 1.1 mph NE1.8 kmh NE 1.8 mph2.9 kmh 30.42 in1030.1 mb 0.00 in0.0 mm 0.00 in0.0 mm 0.00 in0.0 mm
09:39 PM 27.1°F-2.7°C 22.5°F-5.3°C 82% 1.3 mph NE2.1 kmh NE 1.8 mph2.9 kmh 30.42 in1030.1 mb 0.00 in0.0 mm 0.00 in0.0 mm 0.00 in0.0 mm
09:44 PM 27.1°F-2.7°C 22.6°F-5.2°C 83% 1.8 mph ENE2.9 kmh ENE 2.2 mph3.5 kmh 30.41 in1029.8 mb 0.00 in0.0 mm 0.00 in0.0 mm 0.00 in0.0 mm
09:49 PM 27.0°F-2.8°C 22.3°F-5.4°C 82% 1.6 mph NE2.6 kmh NE 2.0 mph3.2 kmh 30.41 in1029.8 mb 0.00 in0.0 mm 0.00 in0.0 mm 0.00 in0.0 mm
09:54 PM 27.1°F-2.7°C 22.6°F-5.2°C 83% 1.6 mph NE2.6 kmh NE 2.0 mph3.2 kmh 30.41 in1029.8 mb 0.00 in0.0 mm 0.00 in0.0 mm 0.00 in0.0 mm
09:59 PM 27.1°F-2.7°C 22.6°F-5.2°C 83% 1.3 mph ENE2.1 kmh ENE 1.8 mph2.9 kmh 30.41 in1029.8 mb 0.00 in0.0 mm 0.00 in0.0 mm 0.00 in0.0 mm
10:04 PM 27.1°F-2.7°C 22.6°F-5.2°C 83% 1.6 mph NE2.6 kmh NE 2.2 mph3.5 kmh 30.41 in1029.8 mb 0.00 in0.0 mm 0.00 in0.0 mm 0.00 in0.0 mm
10:09 PM 27.0°F-2.8°C 22.5°F-5.3°C 83% 1.6 mph NE2.6 kmh NE 2.2 mph3.5 kmh 30.41 in1029.8 mb 0.00 in0.0 mm 0.00 in0.0 mm 0.00 in0.0 mm
10:14 PM 27.1°F-2.7°C 22.6°F-5.2°C 83% 0.9 mph NE1.4 kmh NE 1.8 mph2.9 kmh 30.41 in1029.8 mb 0.00 in0.0 mm 0.00 in0.0 mm 0.00 in0.0 mm
10:19 PM 27.0°F-2.8°C 22.5°F-5.3°C 83% 1.6 mph NE2.6 kmh NE 1.8 mph2.9 kmh 30.41 in1029.8 mb 0.00 in0.0 mm 0.00 in0.0 mm 0.00 in0.0 mm
10:24 PM 26.8°F-2.9°C 22.6°F-5.2°C 84% 1.6 mph E2.6 kmh E 2.5 mph4.0 kmh 30.41 in1029.8 mb 0.00 in0.0 mm 0.00 in0.0 mm 0.00 in0.0 mm
10:29 PM 26.8°F-2.9°C 22.6°F-5.2°C 84% 2.2 mph E3.5 kmh E 2.7 mph4.3 kmh 30.41 in1029.8 mb 0.00 in0.0 mm 0.00 in0.0 mm 0.00 in0.0 mm
10:34 PM 26.8°F-2.9°C 22.3°F-5.4°C 83% 1.6 mph ENE2.6 kmh ENE 1.8 mph2.9 kmh 30.41 in1029.8 mb 0.00 in0.0 mm 0.00 in0.0 mm 0.00 in0.0 mm
10:39 PM 26.8°F-2.9°C 22.6°F-5.2°C 84% 1.8 mph ENE2.9 kmh ENE 2.2 mph3.5 kmh 30.41 in1029.8 mb 0.00 in0.0 mm 0.00 in0.0 mm 0.00 in0.0 mm
10:44 PM 26.8°F-2.9°C 22.6°F-5.2°C 84% 1.1 mph NE1.8 kmh NE 1.8 mph2.9 kmh 30.41 in1029.8 mb 0.00 in0.0 mm 0.00 in0.0 mm 0.00 in0.0 mm
10:49 PM 26.6°F-3.0°C 22.5°F-5.3°C 84% 1.8 mph NE2.9 kmh NE 2.2 mph3.5 kmh 30.42 in1030.1 mb 0.00 in0.0 mm 0.00 in0.0 mm 0.00 in0.0 mm
10:54 PM 26.8°F-2.9°C 22.6°F-5.2°C 84% 1.3 mph E2.1 kmh E 2.0 mph3.2 kmh 30.42 in1030.1 mb 0.00 in0.0 mm 0.00 in0.0 mm 0.00 in0.0 mm
10:59 PM 26.8°F-2.9°C 22.6°F-5.2°C 84% 1.6 mph ESE2.6 kmh ESE 2.0 mph3.2 kmh 30.43 in1030.5 mb 0.00 in0.0 mm 0.00 in0.0 mm 0.00 in0.0 mm
11:04 PM 27.0°F-2.8°C 22.8°F-5.1°C 84% 0.4 mph E0.6 kmh E 1.8 mph2.9 kmh 30.43 in1030.5 mb 0.00 in0.0 mm 0.00 in0.0 mm 0.00 in0.0 mm
11:09 PM 27.0°F-2.8°C 22.8°F-5.1°C 84% 0.9 mph E1.4 kmh E 1.3 mph2.1 kmh 30.43 in1030.5 mb 0.00 in0.0 mm 0.00 in0.0 mm 0.00 in0.0 mm
11:14 PM 27.0°F-2.8°C 22.8°F-5.1°C 84% 1.1 mph ENE1.8 kmh ENE 1.6 mph2.6 kmh 30.43 in1030.5 mb 0.00 in0.0 mm 0.00 in0.0 mm 0.00 in0.0 mm
11:19 PM 26.8°F-2.9°C 22.6°F-5.2°C 84% 1.1 mph ENE1.8 kmh ENE 1.8 mph2.9 kmh 30.43 in1030.5 mb 0.00 in0.0 mm 0.00 in0.0 mm 0.00 in0.0 mm
11:24 PM 26.8°F-2.9°C 22.8°F-5.1°C 85% 1.1 mph ENE1.8 kmh ENE 1.8 mph2.9 kmh 30.43 in1030.5 mb 0.00 in0.0 mm 0.00 in0.0 mm 0.00 in0.0 mm
11:29 PM 26.6°F-3.0°C 22.5°F-5.3°C 84% 1.3 mph E2.1 kmh E 1.8 mph2.9 kmh 30.43 in1030.5 mb 0.00 in0.0 mm 0.00 in0.0 mm 0.00 in0.0 mm
11:34 PM 26.6°F-3.0°C 22.5°F-5.3°C 84% 1.6 mph E2.6 kmh E 2.0 mph3.2 kmh 30.42 in1030.1 mb 0.00 in0.0 mm 0.00 in0.0 mm 0.00 in0.0 mm
11:39 PM 26.6°F-3.0°C 22.6°F-5.2°C 85% 1.8 mph ENE2.9 kmh ENE 2.2 mph3.5 kmh 30.42 in1030.1 mb 0.00 in0.0 mm 0.00 in0.0 mm 0.00 in0.0 mm
11:44 PM 26.6°F-3.0°C 22.5°F-5.3°C 84% 1.3 mph E2.1 kmh E 1.8 mph2.9 kmh 30.42 in1030.1 mb 0.00 in0.0 mm 0.00 in0.0 mm 0.00 in0.0 mm
11:49 PM 26.4°F-3.1°C 22.5°F-5.3°C 85% 1.6 mph E2.6 kmh E 2.0 mph3.2 kmh 30.42 in1030.1 mb 0.00 in0.0 mm 0.00 in0.0 mm 0.00 in0.0 mm
11:54 PM 26.4°F-3.1°C 22.5°F-5.3°C 85% 1.3 mph E2.1 kmh E 1.8 mph2.9 kmh 30.42 in1030.1 mb 0.00 in0.0 mm 0.00 in0.0 mm 0.00 in0.0 mm
11:59 PM 26.2°F-3.2°C 22.1°F-5.5°C 84% 1.3 mph NE2.1 kmh NE 1.8 mph2.9 kmh 30.42 in1030.1 mb 0.00 in0.0 mm 0.00 in0.0 mm 0.00 in0.0 mm